Time;durP1;ratioP1;P1;durP2;ratioP2;P2;SDS_P1;SDS_P2;PMS_P1;PMS_P2;Temp;Humidity;BMP_temperature;BMP_pressure;BME280_temperature;BME280_humidity;BME280_pressure;Samples;Min_cycle;Max_cycle;Signal;HPM_P1;HPM_P2
2023/05/27 00:01:59;;;;;;;14.27;5.83;;;;;;;10.21;74.00;102708.84;5261821;28;20037;-66
2023/05/27 00:04:30;;;;;;;17.20;5.57;;;;;;;10.39;74.12;102710.94;5262761;28;20041;-66
2023/05/27 00:07:02;;;;;;;20.80;6.10;;;;;;;10.18;73.93;102711.38;5262700;28;20113;-66
2023/05/27 00:09:33;;;;;;;11.57;5.67;;;;;;;10.33;74.42;102702.13;5262632;28;20103;-65
2023/05/27 00:12:05;;;;;;;23.57;6.53;;;;;;;9.94;74.22;102693.53;5262501;28;20036;-66
2023/05/27 00:14:36;;;;;;;16.47;6.67;;;;;;;10.18;74.37;102706.16;5262185;28;20111;-65
2023/05/27 00:17:09;;;;;;;20.53;6.13;;;;;;;10.07;74.73;102702.47;5262548;28;20480;-65
2023/05/27 00:19:48;;;;;;;15.95;5.95;;;;;;;9.87;75.25;102704.69;5262492;28;20029;-66
2023/05/27 00:22:19;;;;;;;13.80;5.72;;;;;;;9.97;76.43;102700.53;5262552;28;20024;-65
2023/05/27 00:24:51;;;;;;;17.97;5.93;;;;;;;9.82;76.06;102701.06;5262450;28;20446;-65
2023/05/27 00:27:22;;;;;;;16.27;5.90;;;;;;;9.80;75.93;102706.25;5262179;28;20115;-66
2023/05/27 00:29:53;;;;;;;18.83;5.97;;;;;;;9.65;75.75;102698.13;5294457;28;20041;-65
2023/05/27 00:32:25;;;;;;;16.53;5.37;;;;;;;9.76;76.57;102700.97;5261972;28;20361;-65
2023/05/27 00:34:56;;;;;;;14.77;4.80;;;;;;;9.56;76.33;102695.31;5262418;28;20029;-66
2023/05/27 00:37:28;;;;;;;16.77;5.30;;;;;;;9.58;77.02;102689.31;5262572;28;20437;-65
2023/05/27 00:39:59;;;;;;;15.13;5.40;;;;;;;9.61;77.75;102694.59;5262275;28;20029;-66
2023/05/27 00:42:31;;;;;;;17.07;5.43;;;;;;;9.55;77.88;102694.44;5262192;28;20045;-66
2023/05/27 00:45:03;;;;;;;15.13;5.10;;;;;;;9.56;77.93;102690.97;5262518;28;20367;-66
2023/05/27 00:47:34;;;;;;;18.50;6.28;;;;;;;9.42;78.66;102693.28;5261876;28;20488;-65
2023/05/27 00:50:07;;;;;;;18.27;6.67;;;;;;;9.33;78.19;102692.22;5262148;28;20044;-65
2023/05/27 00:52:39;;;;;;;14.30;5.43;;;;;;;9.21;78.68;102693.69;5261850;28;20028;-65
2023/05/27 00:55:11;;;;;;;15.57;5.43;;;;;;;9.18;78.54;102697.94;5261796;28;20164;-64
2023/05/27 00:57:43;;;;;;;16.63;6.10;;;;;;;9.17;78.76;102693.56;5261897;28;20033;-65
2023/05/27 01:00:15;;;;;;;17.80;5.47;;;;;;;8.95;79.42;102690.44;5262076;28;20348;-65
2023/05/27 01:02:48;;;;;;;14.57;4.50;;;;;;;9.10;80.27;102688.22;5261741;28;20476;-65
2023/05/27 01:05:21;;;;;;;13.60;4.30;;;;;;;9.03;80.68;102686.31;5261999;28;20029;-65
2023/05/27 01:08:01;;;;;;;14.93;5.65;;;;;;;8.98;80.63;102687.91;5261842;28;20033;-65
2023/05/27 01:10:35;;;;;;;15.25;4.85;;;;;;;8.89;80.18;102672.09;5261647;28;20048;-65
2023/05/27 01:13:20;;;;;;;18.10;5.88;;;;;;;8.96;80.92;102675.72;5263767;28;20064;-65
2023/05/27 01:15:52;;;;;;;13.57;5.13;;;;;;;8.90;80.77;102681.63;5265558;28;20057;-65
2023/05/27 01:18:26;;;;;;;13.93;5.68;;;;;;;8.82;80.91;102685.78;5265831;28;20033;-65
2023/05/27 01:21:05;;;;;;;15.38;5.20;;;;;;;8.76;80.80;102677.00;5265943;28;20029;-65
2023/05/27 01:23:40;;;;;;;19.58;5.28;;;;;;;8.70;81.20;102679.44;5265909;28;20450;-65
2023/05/27 01:26:11;;;;;;;18.00;4.70;;;;;;;8.86;82.32;102677.22;5246670;28;20116;-65
2023/05/27 01:28:43;;;;;;;16.37;5.33;;;;;;;8.76;82.25;102673.50;5244202;28;20125;-65
2023/05/27 01:31:41;;;;;;;20.70;5.97;;;;;;;8.77;82.88;102675.25;5244024;28;20480;-65
2023/05/27 01:34:18;;;;;;;19.08;5.63;;;;;;;8.52;82.83;102674.63;5244735;28;20057;-66
2023/05/27 01:36:56;;;;;;;16.00;5.25;;;;;;;8.53;82.70;102676.41;5244740;28;20030;-65
2023/05/27 01:39:28;;;;;;;17.00;6.93;;;;;;;8.49;82.92;102666.75;5244713;28;20021;-65
2023/05/27 01:42:01;;;;;;;14.73;5.78;;;;;;;8.42;83.15;102667.41;5245278;28;20021;-64
2023/05/27 01:44:33;;;;;;;14.93;4.80;;;;;;;8.44;83.28;102663.16;5244438;28;20034;-65
2023/05/27 01:47:04;;;;;;;14.53;4.97;;;;;;;8.42;83.57;102663.91;5243928;28;20036;-65
2023/05/27 01:49:36;;;;;;;18.53;5.90;;;;;;;8.48;84.50;102661.53;5244570;28;20357;-65
2023/05/27 01:52:08;;;;;;;19.03;6.50;;;;;;;8.33;84.64;102664.56;5244575;28;20072;-65
2023/05/27 01:54:40;;;;;;;13.00;4.82;;;;;;;8.32;85.10;102666.31;5244872;28;20056;-65
2023/05/27 01:57:11;;;;;;;15.47;4.77;;;;;;;8.27;85.24;102662.66;5263580;28;20041;-66
2023/05/27 01:59:43;;;;;;;18.17;6.10;;;;;;;8.20;85.02;102660.75;5264448;28;20568;-66
2023/05/27 02:02:14;;;;;;;18.03;7.27;;;;;;;8.07;85.85;102658.69;5246474;28;20033;-65
2023/05/27 02:04:46;;;;;;;16.73;5.10;;;;;;;8.19;85.66;102659.00;5265019;28;20481;-65
2023/05/27 02:07:18;;;;;;;18.27;5.57;;;;;;;8.10;86.51;102653.53;5263574;28;20037;-66
2023/05/27 02:09:50;;;;;;;;;;;;;;;8.08;84.46;102652.63;5265245;28;20063;-66
2023/05/27 02:12:21;;;;;;;16.17;6.13;;;;;;;8.09;86.31;102647.47;5263603;28;19967;-66
2023/05/27 02:14:53;;;;;;;20.93;8.17;;;;;;;7.90;86.01;102656.47;5263128;28;20198;-66
2023/05/27 02:17:24;;;;;;;20.67;5.83;;;;;;;7.86;86.56;102665.00;5264640;28;20033;-66
2023/05/27 02:19:55;;;;;;;15.63;6.13;;;;;;;7.84;87.54;102666.66;5264436;28;20029;-65
2023/05/27 02:22:27;;;;;;;13.67;6.13;;;;;;;7.70;87.24;102665.41;5264617;28;20100;-65
2023/05/27 02:24:58;;;;;;;19.03;7.13;;;;;;;7.61;87.83;102666.88;5263975;28;20040;-65
2023/05/27 02:27:29;;;;;;;23.30;5.37;;;;;;;7.61;88.68;102666.88;5264595;28;20385;-65
2023/05/27 02:30:01;;;;;;;17.67;5.90;;;;;;;7.59;88.84;102665.97;5264498;28;20124;-65
2023/05/27 02:32:32;;;;;;;23.53;5.70;;;;;;;7.58;89.15;102668.50;5264252;28;20041;-65
2023/05/27 02:35:04;;;;;;;18.57;5.87;;;;;;;7.51;89.32;102672.63;5264139;28;20154;-65
2023/05/27 02:37:35;;;;;;;17.07;5.20;;;;;;;7.30;89.54;102667.69;5264378;28;20037;-66
2023/05/27 02:40:09;;;;;;;16.80;5.60;;;;;;;7.34;89.60;102663.47;5264064;28;20028;-66
2023/05/27 02:42:40;;;;;;;14.88;6.05;;;;;;;7.20;90.00;102665.63;5264288;28;20040;-66
2023/05/27 02:45:11;;;;;;;15.37;6.47;;;;;;;7.19;90.29;102664.75;5264267;28;20044;-66
2023/05/27 02:47:43;;;;;;;14.23;6.00;;;;;;;7.15;90.70;102665.50;5264215;28;20036;-64
2023/05/27 02:50:14;;;;;;;17.70;5.63;;;;;;;7.27;91.46;102664.97;5264259;28;20044;-65
2023/05/27 02:52:45;;;;;;;20.20;6.47;;;;;;;7.23;91.78;102665.72;5264121;28;20036;-65
2023/05/27 02:55:17;;;;;;;19.90;7.03;;;;;;;7.24;92.14;102665.75;5263887;28;20033;-65
2023/05/27 02:57:48;;;;;;;16.77;5.60;;;;;;;7.15;91.83;102674.97;5262592;28;20120;-65
2023/05/27 03:00:20;;;;;;;23.43;7.10;;;;;;;7.01;92.22;102680.59;5263684;28;20067;-66
2023/05/27 03:02:51;;;;;;;25.33;6.67;;;;;;;6.96;92.90;102681.28;5263329;28;20037;-65
2023/05/27 03:05:22;;;;;;;20.83;7.87;;;;;;;7.08;93.02;102686.84;5262516;28;20037;-65
2023/05/27 03:07:54;;;;;;;21.93;7.80;;;;;;;6.92;93.08;102682.88;5263700;28;20413;-66
2023/05/27 03:10:25;;;;;;;23.67;6.07;;;;;;;6.85;93.45;102680.94;5262635;28;20040;-64
2023/05/27 03:12:57;;;;;;;19.27;6.47;;;;;;;6.92;93.92;102681.19;5263436;28;20025;-64
2023/05/27 03:15:29;;;;;;;21.70;7.67;;;;;;;6.90;93.86;102680.25;5263222;28;20102;-66
2023/05/27 03:18:03;;;;;;;22.33;6.22;;;;;;;6.89;94.03;102681.09;5263462;28;20082;-66
2023/05/27 03:20:34;;;;;;;23.15;6.38;;;;;;;6.92;94.64;102686.38;5263469;28;20029;-66
2023/05/27 03:23:06;;;;;;;22.03;7.07;;;;;;;6.86;94.66;102682.69;5263495;28;20472;-65
2023/05/27 03:25:37;;;;;;;16.43;6.17;;;;;;;6.82;94.58;102679.09;5263365;28;20115;-66
2023/05/27 03:28:09;;;;;;;17.70;6.33;;;;;;;6.83;94.82;102683.47;5263368;28;20037;-65
2023/05/27 03:30:43;;;;;;;22.43;7.50;;;;;;;6.99;95.56;102677.09;5263319;28;20461;-65
2023/05/27 03:33:14;;;;;;;19.85;5.90;;;;;;;6.73;95.80;102671.06;5262724;28;20037;-65
2023/05/27 03:35:45;;;;;;;19.00;7.30;;;;;;;6.81;95.71;102672.19;5262392;28;20404;-64
2023/05/27 03:38:17;;;;;;;19.93;6.63;;;;;;;6.74;95.83;102665.00;5263155;28;20036;-65
2023/05/27 03:40:49;;;;;;;16.58;6.72;;;;;;;6.85;96.06;102661.06;5262783;28;20025;-65
2023/05/27 03:43:20;;;;;;;19.07;6.30;;;;;;;6.85;96.04;102653.28;5263062;28;20056;-65
2023/05/27 03:45:51;;;;;;;21.70;7.10;;;;;;;6.79;96.61;102655.69;5262970;28;20159;-65
2023/05/27 03:48:23;;;;;;;16.73;6.90;;;;;;;6.70;96.68;102652.81;5262810;28;20473;-65
2023/05/27 03:50:54;;;;;;;20.13;6.50;;;;;;;6.78;97.18;102650.44;5261605;28;20372;-65
2023/05/27 03:53:25;;;;;;;23.87;7.27;;;;;;;6.73;97.39;102651.19;5262951;28;20033;-65
2023/05/27 03:55:57;;;;;;;21.17;6.77;;;;;;;6.73;97.28;102647.72;5263189;28;20044;-65
2023/05/27 03:58:28;;;;;;;22.60;7.20;;;;;;;6.74;97.33;102649.47;5262941;28;20025;-65
2023/05/27 04:00:59;;;;;;;19.50;6.60;;;;;;;6.78;98.13;102646.16;5262896;28;20033;-65
2023/05/27 04:03:31;;;;;;;16.60;6.30;;;;;;;6.73;97.77;102651.19;5260762;28;20476;-65
2023/05/27 04:06:03;;;;;;;19.95;6.40;;;;;;;6.72;98.01;102649.41;5262753;28;20083;-65
2023/05/27 04:08:35;;;;;;;17.13;7.10;;;;;;;6.78;98.01;102646.16;5262736;28;20025;-65
2023/05/27 04:11:15;;;;;;;15.95;6.75;;;;;;;6.66;98.20;102650.94;5262602;28;20067;-65
2023/05/27 04:13:48;;;;;;;17.85;6.68;;;;;;;6.68;98.11;102649.25;5262447;28;20380;-65
2023/05/27 04:16:21;;;;;;;18.50;7.47;;;;;;;6.73;98.42;102647.72;5261599;28;20033;-64
2023/05/27 04:18:52;;;;;;;21.30;7.50;;;;;;;6.72;98.67;102643.34;5262428;28;20033;-65
2023/05/27 04:21:24;;;;;;;13.73;7.60;;;;;;;6.71;98.56;102644.19;5262560;28;20081;-64
2023/05/27 04:23:55;;;;;;;25.63;8.03;;;;;;;6.68;98.52;102644.06;5262540;28;20060;-65
2023/05/27 04:26:27;;;;;;;17.80;7.67;;;;;;;6.69;99.43;102645.84;5261324;28;20033;-65
2023/05/27 04:29:02;;;;;;;21.30;7.50;;;;;;;6.86;99.67;102644.69;5261244;28;20037;-65
2023/05/27 04:31:36;;;;;;;19.38;7.40;;;;;;;6.89;99.75;102644.78;5260732;28;20064;-66
2023/05/27 04:34:07;;;;;;;19.33;7.43;;;;;;;6.99;99.69;102635.59;5262198;28;20172;-66
2023/05/27 04:36:39;;;;;;;17.47;7.27;;;;;;;6.86;99.24;102631.72;5262694;28;20112;-64
2023/05/27 04:39:11;;;;;;;23.13;7.13;;;;;;;6.94;99.10;102621.63;5262364;28;20053;-65
2023/05/27 04:41:44;;;;;;;19.35;6.28;;;;;;;7.04;98.81;102625.38;5262402;28;20106;-65
2023/05/27 04:44:17;;;;;;;23.50;8.32;;;;;;;6.95;98.75;102631.13;5262235;28;20102;-65
2023/05/27 04:46:48;;;;;;;24.58;7.75;;;;;;;7.06;99.01;102621.09;5262812;28;20037;-65
2023/05/27 04:49:20;;;;;;;15.37;7.00;;;;;;;7.07;99.17;102620.28;5265384;28;20538;-64
2023/05/27 04:51:51;;;;;;;22.77;7.10;;;;;;;7.06;98.95;102615.91;5265426;28;20387;-64
2023/05/27 04:54:23;;;;;;;18.93;6.97;;;;;;;7.10;99.04;102617.78;5266756;28;20028;-64
2023/05/27 04:56:54;;;;;;;20.70;8.23;;;;;;;7.17;99.02;102616.25;5266668;28;20087;-63
2023/05/27 04:59:35;;;;;;;22.90;7.43;;;;;;;7.23;98.97;102612.13;5266501;28;20033;-64
2023/05/27 05:02:09;;;;;;;21.35;8.32;;;;;;;7.23;98.98;102616.41;5265733;28;20041;-63
2023/05/27 05:04:41;;;;;;;19.58;8.88;;;;;;;7.26;98.95;102608.75;5266149;28;20032;-65
2023/05/27 05:07:12;;;;;;;19.90;8.83;;;;;;;7.30;98.33;102614.06;5266055;28;20388;-65
2023/05/27 05:09:44;;;;;;;24.10;8.73;;;;;;;7.38;98.07;102613.44;5265865;28;20083;-64
2023/05/27 05:12:15;;;;;;;20.37;7.87;;;;;;;7.44;97.72;102608.44;5266001;28;20037;-65
2023/05/27 05:14:46;;;;;;;20.83;7.73;;;;;;;7.46;97.69;102607.63;5265934;28;20129;-65
2023/05/27 05:17:18;;;;;;;30.37;8.37;;;;;;;7.57;97.95;102614.88;5265666;28;20024;-65
2023/05/27 05:19:51;;;;;;;17.60;7.43;;;;;;;7.65;97.96;102619.44;5265991;28;20033;-66
2023/05/27 05:22:23;;;;;;;25.25;8.48;;;;;;;7.76;97.54;102622.34;5265531;28;20099;-65
2023/05/27 05:24:54;;;;;;;19.63;8.17;;;;;;;7.88;97.77;102621.78;5265843;28;20033;-65
2023/05/27 05:27:27;;;;;;;23.87;8.53;;;;;;;7.84;97.15;102615.63;5265437;28;20041;-64
2023/05/27 05:29:59;;;;;;;18.50;7.40;;;;;;;8.01;96.77;102608.28;5265441;28;20037;-65
2023/05/27 05:32:30;;;;;;;22.40;8.90;;;;;;;8.07;96.24;102615.38;5265478;28;20344;-65
2023/05/27 05:35:03;;;;;;;25.73;8.80;;;;;;;8.16;95.80;102612.16;5264035;28;20029;-65
2023/05/27 05:37:34;;;;;;;;;;;;;;;8.22;95.25;102604.50;5265612;28;20029;-66
2023/05/27 05:40:06;;;;;;;16.30;7.78;;;;;;;8.29;95.03;102609.06;5265529;28;20419;-68
2023/05/27 05:42:37;;;;;;;21.17;7.68;;;;;;;8.32;94.27;102606.53;5265068;28;20036;-66
2023/05/27 05:45:09;;;;;;;19.60;8.53;;;;;;;8.38;94.14;102608.41;5265430;28;20403;-65
2023/05/27 05:47:40;;;;;;;24.37;8.47;;;;;;;8.55;94.52;102617.53;5265368;28;20171;-66
2023/05/27 05:50:11;;;;;;;19.93;8.30;;;;;;;8.60;93.77;102609.84;5265264;28;20037;-66
2023/05/27 05:52:43;;;;;;;22.23;8.27;;;;;;;8.59;93.51;102610.69;5265592;28;20125;-65
2023/05/27 05:55:14;;;;;;;24.13;7.67;;;;;;;8.66;92.66;102598.72;5264774;28;20033;-66
2023/05/27 05:57:45;;;;;;;18.00;7.63;;;;;;;8.81;92.57;102587.81;5264365;28;20029;-66
2023/05/27 06:00:17;;;;;;;20.07;7.43;;;;;;;8.90;92.57;102598.41;5264842;28;20426;-65
2023/05/27 06:02:49;;;;;;;24.42;7.88;;;;;;;9.02;92.43;102588.31;5264562;28;20060;-67
2023/05/27 06:05:22;;;;;;;16.90;6.80;;;;;;;9.09;91.52;102584.09;5265067;28;20087;-66
2023/05/27 06:07:53;;;;;;;;;;;;;;;9.20;91.23;102589.56;5264181;28;20037;-66
2023/05/27 06:10:24;;;;;;;20.88;8.77;;;;;;;9.21;90.99;102594.81;5264620;28;19935;-65
2023/05/27 06:12:56;;;;;;;21.77;7.97;;;;;;;9.34;90.59;102595.03;5264862;28;20090;-65
2023/05/27 06:15:27;;;;;;;24.70;7.53;;;;;;;9.45;89.62;102596.16;5264199;28;20057;-64
2023/05/27 06:17:59;;;;;;;20.27;7.07;;;;;;;9.53;89.21;102597.22;5264421;28;20040;-66
2023/05/27 06:20:30;;;;;;;19.47;7.80;;;;;;;9.61;88.99;102589.53;5261793;28;20029;-65
2023/05/27 06:23:02;;;;;;;20.67;7.50;;;;;;;9.66;88.39;102583.59;5264669;28;20040;-65
2023/05/27 06:25:34;;;;;;;21.63;7.27;;;;;;;9.83;88.50;102588.25;5263996;28;20029;-65
2023/05/27 06:28:05;;;;;;;25.57;8.40;;;;;;;9.97;88.45;102583.31;5264512;28;20040;-66
2023/05/27 06:30:38;;;;;;;16.23;7.50;;;;;;;10.02;87.39;102579.91;5263149;28;20126;-66
2023/05/27 06:33:09;;;;;;;32.38;7.63;;;;;;;10.05;87.33;102581.72;5262562;28;20539;-66
2023/05/27 06:35:41;;;;;;;22.33;8.17;;;;;;;10.14;87.57;102576.69;5263689;28;20163;-66
2023/05/27 06:38:12;;;;;;;21.87;7.73;;;;;;;10.32;85.76;102583.97;5263079;28;20033;-66
2023/05/27 06:40:44;;;;;;;21.53;7.87;;;;;;;10.39;85.91;102582.34;5263245;28;20052;-66
2023/05/27 06:43:15;;;;;;;15.23;7.47;;;;;;;10.48;84.51;102585.09;5264141;28;20025;-66
2023/05/27 06:45:46;;;;;;;20.73;6.93;;;;;;;10.57;84.82;102568.72;5263348;28;20033;-65
2023/05/27 06:48:18;;;;;;;17.50;7.13;;;;;;;10.71;85.39;102569.81;5262594;28;20033;-65
2023/05/27 06:50:49;;;;;;;23.57;8.27;;;;;;;10.77;83.82;102563.81;5263452;28;20464;-66
2023/05/27 06:53:20;;;;;;;25.97;10.13;;;;;;;10.86;84.19;102568.28;5264116;28;20029;-65
2023/05/27 06:55:52;;;;;;;18.67;7.47;;;;;;;10.90;82.98;102573.56;5263306;28;20473;-66
2023/05/27 06:58:23;;;;;;;21.43;7.13;;;;;;;11.02;82.98;102572.88;5263674;28;20536;-65
2023/05/27 07:00:54;;;;;;;24.67;7.93;;;;;;;11.06;82.13;102573.78;5263198;28;20036;-66
2023/05/27 07:03:26;;;;;;;17.60;7.20;;;;;;;11.13;81.15;102568.66;5263115;28;20108;-65
2023/05/27 07:05:57;;;;;;;24.43;8.10;;;;;;;11.21;81.36;102567.91;5262733;28;20025;-67
2023/05/27 07:08:28;;;;;;;19.43;8.13;;;;;;;11.31;80.60;102565.41;5263800;28;20140;-66
2023/05/27 07:11:00;;;;;;;21.47;8.40;;;;;;;11.36;79.99;102567.22;5262827;28;20029;-65
2023/05/27 07:13:31;;;;;;;22.50;7.23;;;;;;;11.49;79.68;102569.13;5263718;28;20036;-66
2023/05/27 07:16:03;;;;;;;21.50;7.67;;;;;;;11.60;79.38;102569.25;5262811;28;20500;-65
2023/05/27 07:18:34;;;;;;;22.40;7.60;;;;;;;11.72;79.35;102565.88;5263525;28;20431;-66
2023/05/27 07:21:05;;;;;;;22.77;7.37;;;;;;;11.93;79.42;102565.28;5262679;28;20190;-66
2023/05/27 07:23:37;;;;;;;21.97;7.87;;;;;;;12.07;78.24;102568.03;5263216;28;20032;-65
2023/05/27 07:26:08;;;;;;;22.73;7.80;;;;;;;12.16;77.71;102568.13;5262466;28;20037;-65
2023/05/27 07:28:40;;;;;;;25.97;7.93;;;;;;;12.28;77.12;102565.59;5263140;28;20029;-65
2023/05/27 07:31:11;;;;;;;22.27;7.47;;;;;;;12.41;75.96;102563.97;5262719;28;20094;-66
2023/05/27 07:33:42;;;;;;;21.50;8.37;;;;;;;12.47;75.13;102561.41;5262099;28;20033;-66
2023/05/27 07:36:14;;;;;;;21.00;8.30;;;;;;;12.58;75.96;102561.50;5262345;28;20396;-66
2023/05/27 07:38:46;;;;;;;18.70;7.77;;;;;;;12.84;75.77;102563.41;5263105;28;20041;-65
2023/05/27 07:41:18;;;;;;;18.37;7.00;;;;;;;12.97;74.39;102565.22;5262446;28;20033;-65
2023/05/27 07:43:49;;;;;;;19.48;8.23;;;;;;;13.09;74.75;102556.59;5263191;28;20456;-66
2023/05/27 07:46:21;;;;;;;22.17;7.87;;;;;;;13.29;73.88;102551.44;5262310;28;20086;-66
2023/05/27 07:48:52;;;;;;;17.27;7.93;;;;;;;13.34;72.45;102549.72;5262746;28;20028;-67
2023/05/27 07:51:23;;;;;;;25.27;8.53;;;;;;;13.40;72.32;102555.00;5262108;28;20108;-66
2023/05/27 07:53:55;;;;;;;21.80;7.67;;;;;;;13.32;72.63;102548.81;5262520;28;20025;-66
2023/05/27 07:56:26;;;;;;;18.27;7.93;;;;;;;13.58;71.68;102542.84;5262311;28;20037;-66
2023/05/27 07:58:58;;;;;;;20.07;8.40;;;;;;;13.67;73.12;102541.09;5262596;28;20033;-65
2023/05/27 08:01:32;;;;;;;23.60;8.10;;;;;;;13.74;70.25;102541.13;5262319;28;20107;-67
2023/05/27 08:04:03;;;;;;;19.58;8.43;;;;;;;13.88;72.94;102533.28;5262411;28;20123;-67
2023/05/27 08:06:35;;;;;;;17.00;6.70;;;;;;;14.04;70.47;102540.31;5262246;28;20116;-67
2023/05/27 08:09:07;;;;;;;20.65;8.10;;;;;;;14.08;69.44;102536.78;5258611;28;20054;-66
2023/05/27 08:11:38;;;;;;;18.35;8.18;;;;;;;14.04;69.25;102529.81;5261305;28;20025;-65
2023/05/27 08:14:10;;;;;;;19.17;8.13;;;;;;;14.19;68.45;102521.06;5261592;28;20085;-66
2023/05/27 08:16:42;;;;;;;19.53;8.03;;;;;;;14.30;68.39;102518.47;5260234;28;20503;-68
2023/05/27 08:19:13;;;;;;;17.90;8.52;;;;;;;14.39;67.17;102518.44;5261311;28;20456;-68
2023/05/27 08:21:45;;;;;;;21.63;7.40;;;;;;;14.55;66.64;102508.78;5261061;28;20060;-66
2023/05/27 08:24:16;;;;;;;22.00;9.00;;;;;;;14.69;66.48;102509.66;5260163;28;20536;-66
2023/05/27 08:26:49;;;;;;;21.17;7.70;;;;;;;14.85;67.39;102512.25;5261129;28;20475;-66
2023/05/27 08:29:20;;;;;;;21.77;8.32;;;;;;;14.80;64.65;102504.41;5258261;28;20041;-66
2023/05/27 08:31:53;;;;;;;20.30;9.03;;;;;;;14.99;65.51;102493.81;5260945;28;20087;-66
2023/05/27 08:34:25;;;;;;;;;;;;;;;15.17;63.14;102499.00;5260827;28;20116;-67
2023/05/27 08:36:57;;;;;;;23.13;7.63;;;;;;;15.11;63.88;102489.38;5261082;28;19923;-65
2023/05/27 08:39:28;;;;;;;20.83;7.47;;;;;;;15.33;64.14;102484.03;5261461;28;20380;-67
2023/05/27 08:42:02;;;;;;;17.73;8.07;;;;;;;15.52;63.36;102486.53;5260107;28;20118;-66
2023/05/27 08:44:33;;;;;;;20.35;8.80;;;;;;;15.57;61.86;102480.41;5261262;28;20036;-66
2023/05/27 08:47:05;;;;;;;17.50;8.03;;;;;;;15.79;61.25;102482.88;5261739;28;20116;-67
2023/05/27 08:49:36;;;;;;;20.73;7.10;;;;;;;15.84;61.32;102475.84;5259399;28;20033;-66
2023/05/27 08:52:10;;;;;;;18.70;7.60;;;;;;;15.92;59.78;102467.88;5261330;28;20082;-66
2023/05/27 08:54:42;;;;;;;21.48;7.20;;;;;;;15.85;60.12;102467.06;5261217;28;20040;-67
2023/05/27 08:57:17;;;;;;;19.53;6.20;;;;;;;16.26;60.93;102470.22;5259535;28;20025;-68
2023/05/27 08:59:48;;;;;;;22.67;7.43;;;;;;;16.30;59.87;102464.06;5259833;28;20119;-67
2023/05/27 09:02:21;;;;;;;23.37;7.57;;;;;;;16.49;60.39;102462.97;5261705;28;20116;-66
2023/05/27 09:04:52;;;;;;;;;;;;;;;16.73;57.72;102463.59;5261276;28;20037;-65
2023/05/27 09:07:24;;;;;;;20.35;7.28;;;;;;;16.65;58.21;102462.81;5261784;28;20707;-66
2023/05/27 09:09:57;;;;;;;22.73;7.77;;;;;;;16.40;56.87;102453.44;5261180;28;20083;-67
2023/05/27 09:12:28;;;;;;;17.17;7.35;;;;;;;16.76;59.48;102450.41;5261959;28;20025;-65
2023/05/27 09:15:00;;;;;;;18.93;6.93;;;;;;;16.88;58.75;102447.63;5261283;28;20060;-66
2023/05/27 09:17:32;;;;;;;18.80;8.07;;;;;;;17.28;57.98;102447.09;5262075;28;20473;-66
2023/05/27 09:20:03;;;;;;;23.50;8.13;;;;;;;17.51;56.17;102445.88;5260938;28;20029;-66
2023/05/27 09:22:35;;;;;;;17.77;7.43;;;;;;;17.56;54.60;102437.91;5260718;28;20036;-68
2023/05/27 09:25:08;;;;;;;18.93;7.17;;;;;;;17.68;55.28;102437.72;5261324;28;20037;-66
2023/05/27 09:27:42;;;;;;;24.67;7.20;;;;;;;17.67;56.12;102435.97;5261846;28;20151;-66
2023/05/27 09:30:14;;;;;;;19.73;7.72;;;;;;;17.50;54.12;102438.88;5261332;28;20025;-65
2023/05/27 09:32:46;;;;;;;19.92;8.00;;;;;;;17.55;53.64;102430.88;5261499;28;20025;-65
2023/05/27 09:35:17;;;;;;;18.20;8.30;;;;;;;17.62;53.99;102428.13;5265083;28;20457;-65
2023/05/27 09:37:50;;;;;;;19.65;7.78;;;;;;;17.50;52.57;102428.34;5265411;28;20037;-66
2023/05/27 09:40:22;;;;;;;18.67;7.55;;;;;;;17.76;53.26;102422.63;5264895;28;20499;-65
2023/05/27 09:42:53;;;;;;;14.57;7.07;;;;;;;17.97;53.83;102415.28;5265649;28;20112;-65
2023/05/27 09:45:25;;;;;;;26.00;7.37;;;;;;;18.39;53.31;102416.22;5264676;28;20041;-66
2023/05/27 09:48:00;;;;;;;14.68;7.03;;;;;;;18.52;51.40;102421.28;5265572;28;20032;-66
2023/05/27 09:50:33;;;;;;;18.60;7.45;;;;;;;18.72;50.09;102412.94;5264864;28;20036;-65
2023/05/27 09:53:06;;;;;;;17.25;6.50;;;;;;;18.75;48.65;102410.22;5265103;28;20460;-66
2023/05/27 09:55:40;;;;;;;17.35;6.93;;;;;;;19.19;49.61;102411.06;5264358;28;20029;-66
2023/05/27 09:58:12;;;;;;;16.50;7.97;;;;;;;19.89;47.83;102404.13;5265257;28;20033;-67
2023/05/27 10:00:45;;;;;;;15.77;6.18;;;;;;;21.51;45.44;102402.03;5263530;28;20033;-66
2023/05/27 10:03:21;;;;;;;17.40;6.85;;;;;;;22.82;39.16;102406.25;5264275;28;20041;-66
2023/05/27 10:05:52;;;;;;;14.65;6.75;;;;;;;23.39;39.40;102401.34;5264141;28;20463;-66
2023/05/27 10:08:24;;;;;;;18.75;6.53;;;;;;;23.73;37.68;102399.06;5265134;28;20033;-67
2023/05/27 10:10:56;;;;;;;18.75;6.55;;;;;;;23.40;36.78;102389.78;5264347;28;20029;-67
2023/05/27 10:13:27;;;;;;;17.63;6.63;;;;;;;22.29;37.78;102393.16;5265076;28;20032;-65
2023/05/27 10:15:59;;;;;;;16.17;6.28;;;;;;;22.06;40.46;102394.84;5263503;28;20060;-67
2023/05/27 10:18:30;;;;;;;15.53;6.53;;;;;;;21.69;40.33;102377.56;5264686;28;20029;-65
2023/05/27 10:21:04;;;;;;;18.50;6.20;;;;;;;21.55;39.66;102383.31;5264256;28;20033;-66
2023/05/27 10:23:36;;;;;;;16.10;7.05;;;;;;;21.88;42.01;102375.13;5264322;28;20556;-65
2023/05/27 10:26:07;;;;;;;18.55;6.53;;;;;;;22.25;44.76;102381.78;5263936;28;20111;-65
2023/05/27 10:28:40;;;;;;;19.55;7.30;;;;;;;22.31;39.16;102381.56;5264600;28;20037;-65
2023/05/27 10:31:17;;;;;;;17.30;6.20;;;;;;;22.81;38.93;102377.91;5263791;28;20040;-65
2023/05/27 10:33:51;;;;;;;13.38;6.07;;;;;;;23.01;37.53;102373.63;5264026;28;20028;-66
2023/05/27 10:36:25;;;;;;;15.00;6.18;;;;;;;23.06;37.30;102374.31;5264307;28;20033;-66
2023/05/27 10:39:16;;;;;;;14.15;6.32;;;;;;;24.42;35.89;102372.03;5264361;28;20033;-64
2023/05/27 10:41:52;;;;;;;15.65;6.68;;;;;;;24.75;34.64;102369.63;5264577;28;20064;-65
2023/05/27 10:44:32;;;;;;;18.25;7.15;;;;;;;25.74;34.95;102370.09;5263166;28;20115;-66
2023/05/27 10:47:04;;;;;;;16.30;6.25;;;;;;;26.76;33.90;102364.72;5264448;28;20032;-66
2023/05/27 10:49:39;;;;;;;17.60;8.20;;;;;;;26.97;31.46;102370.66;5263662;28;20055;-66
2023/05/27 10:52:17;;;;;;;15.20;6.88;;;;;;;27.65;31.02;102361.34;5263033;28;20033;-65
2023/05/27 10:54:52;;;;;;;16.23;6.85;;;;;;;27.88;28.87;102357.25;5262914;28;20033;-66
2023/05/27 10:57:24;;;;;;;16.40;6.57;;;;;;;28.36;31.79;102352.50;5264147;28;20084;-66
2023/05/27 10:59:58;;;;;;;;;;;;;;;31.12;29.69;102351.44;5263719;28;20069;-67
2023/05/27 11:02:34;;;;;;;17.48;7.30;;;;;;;29.99;25.85;102343.47;5263526;28;20260;-66
2023/05/27 11:05:10;;;;;;;16.70;6.70;;;;;;;29.67;25.89;102345.69;5262958;28;20084;-66
2023/05/27 11:07:42;;;;;;;17.92;6.80;;;;;;;29.53;25.16;102327.84;5263972;28;20387;-67
2023/05/27 11:10:13;;;;;;;;;;;;;;;32.05;24.18;102326.28;5263713;28;20119;-66
2023/05/27 11:12:45;;;;;;;13.17;6.90;;;;;;;29.77;25.02;102311.84;5263905;28;19920;-66
2023/05/27 11:15:18;;;;;;;;;;;;;;;31.29;24.80;102320.53;5262007;28;20504;-66
2023/05/27 11:17:49;;;;;;;;;;;;;;;31.78;24.45;102318.56;5264279;28;19916;-66
2023/05/27 11:20:20;;;;;;;12.53;6.77;;;;;;;29.86;25.66;102307.66;5263115;28;19923;-66
2023/05/27 11:22:52;;;;;;;;;;;;;;;32.16;22.77;102314.66;5263749;28;20278;-66
2023/05/27 11:25:23;;;;;;;17.43;7.50;;;;;;;30.71;25.90;102301.56;5263105;28;19923;-66
2023/05/27 11:27:54;;;;;;;;;;;;;;;32.62;22.57;102310.00;5263656;28;20104;-66
2023/05/27 11:30:27;;;;;;;16.43;6.67;;;;;;;29.78;23.92;102296.56;5262908;28;19923;-65
2023/05/27 11:33:03;;;;;;;13.13;5.70;;;;;;;29.48;28.50;102297.78;5262782;28;20073;-66
2023/05/27 11:35:34;;;;;;;20.50;6.32;;;;;;;30.31;24.16;102282.94;5262467;28;20033;-66
2023/05/27 11:38:16;;;;;;;16.52;5.90;;;;;;;30.97;23.71;102274.53;5263122;28;20029;-65
2023/05/27 11:40:48;;;;;;;14.85;5.65;;;;;;;30.33;22.55;102273.81;5262520;28;20037;-66
2023/05/27 11:43:19;;;;;;;14.38;5.80;;;;;;;30.63;23.79;102275.22;5263427;28;20419;-66
2023/05/27 11:45:50;;;;;;;14.82;7.03;;;;;;;30.84;22.65;102279.97;5262586;28;20459;-66
2023/05/27 11:48:22;;;;;;;14.00;5.45;;;;;;;31.87;22.83;102280.09;5263279;28;20036;-66